Map

Track Data

SID SEASON NUMBER BASIN SUBBASIN NAME ISO_TIME NATURE LAT LON WMO_WIND WMO_PRES WMO_AGENCY TRACK_TYPE DIST2LAND LANDFALL IFLAG USA_AGENCY USA_ATCF_ID USA_LAT USA_LON USA_RECORD USA_STATUS USA_WIND USA_PRES USA_SSHS USA_R34_NE USA_R34_SE USA_R34_SW USA_R34_NW USA_R50_NE USA_R50_SE USA_R50_SW USA_R50_NW USA_R64_NE USA_R64_SE USA_R64_SW USA_R64_NW USA_POCI USA_ROCI USA_RMW USA_EYE TOKYO_LAT TOKYO_LON TOKYO_GRADE TOKYO_WIND TOKYO_PRES TOKYO_R50_DIR TOKYO_R50_LONG TOKYO_R50_SHORT TOKYO_R30_DIR TOKYO_R30_LONG TOKYO_R30_SHORT TOKYO_LAND CMA_LAT CMA_LON CMA_CAT CMA_WIND CMA_PRES HKO_LAT HKO_LON HKO_CAT HKO_WIND HKO_PRES NEWDELHI_LAT NEWDELHI_LON NEWDELHI_GRADE NEWDELHI_WIND NEWDELHI_PRES NEWDELHI_CI NEWDELHI_DP NEWDELHI_POCI REUNION_LAT REUNION_LON REUNION_TYPE REUNION_WIND REUNION_PRES REUNION_TNUM REUNION_CI REUNION_RMW REUNION_R34_NE REUNION_R34_SE REUNION_R34_SW REUNION_R34_NW REUNION_R50_NE REUNION_R50_SE REUNION_R50_SW REUNION_R50_NW REUNION_R64_NE REUNION_R64_SE REUNION_R64_SW REUNION_R64_NW BOM_LAT BOM_LON BOM_TYPE BOM_WIND BOM_PRES BOM_TNUM BOM_CI BOM_RMW BOM_R34_NE BOM_R34_SE BOM_R34_SW BOM_R34_NW BOM_R50_NE BOM_R50_SE BOM_R50_SW BOM_R50_NW BOM_R64_NE BOM_R64_SE BOM_R64_SW BOM_R64_NW BOM_ROCI BOM_POCI BOM_EYE BOM_POS_METHOD BOM_PRES_METHOD NADI_LAT NADI_LON NADI_CAT NADI_WIND NADI_PRES WELLINGTON_LAT WELLINGTON_LON WELLINGTON_WIND WELLINGTON_PRES DS824_LAT DS824_LON DS824_STAGE DS824_WIND DS824_PRES TD9636_LAT TD9636_LON TD9636_STAGE TD9636_WIND TD9636_PRES TD9635_LAT TD9635_LON TD9635_WIND TD9635_PRES TD9635_ROCI NEUMANN_LAT NEUMANN_LON NEUMANN_CLASS NEUMANN_WIND NEUMANN_PRES MLC_LAT MLC_LON MLC_CLASS MLC_WIND MLC_PRES USA_GUST BOM_GUST BOM_GUST_PER REUNION_GUST REUNION_GUST_PER USA_SEAHGT USA_SEARAD_NE USA_SEARAD_SE USA_SEARAD_SW USA_SEARAD_NW STORM_SPEED STORM_DIR
1932001S15061 1932 3 SI MM NOT_NAMED 1932-01-01 06:00:00 NR -15.3000 60.9000 reunion main 635 619 _____O________ -1 -15.3000 60.9000 99 9.90000 4 227
1932001S15061 1932 3 SI MM NOT_NAMED 1932-01-01 09:00:00 NR -15.4247 60.7641 main 619 599 _____P________ -1 -15.4247 60.7641 99 4 226
1932001S15061 1932 3 SI MM NOT_NAMED 1932-01-01 12:00:00 NR -15.5517 60.6267 main 589 574 _____P________ -1 -15.5517 60.6267 99 4 226
1932001S15061 1932 3 SI MM NOT_NAMED 1932-01-01 15:00:00 NR -15.6836 60.4866 main 574 559 _____P________ -1 -15.6836 60.4866 99 4 225
1932001S15061 1932 3 SI MM NOT_NAMED 1932-01-01 18:00:00 NR -15.8227 60.3426 main 554 529 _____P________ -1 -15.8227 60.3426 99 4 224
1932001S15061 1932 3 SI MM NOT_NAMED 1932-01-01 21:00:00 NR -15.9714 60.1932 main 529 509 _____P________ -1 -15.9714 60.1932 99 4 223
1932001S15061 1932 3 SI MM NOT_NAMED 1932-01-02 00:00:00 NR -16.1323 60.0372 main 509 484 _____P________ -1 -16.1323 60.0372 99 5 222
1932001S15061 1932 3 SI MM NOT_NAMED 1932-01-02 03:00:00 NR -16.3077 59.8733 main 484 454 _____P________ -1 -16.3077 59.8733 99 5 221
1932001S15061 1932 3 SI MM NOT_NAMED 1932-01-02 06:00:00 NR -16.5000 59.7000 reunion main 454 425 _____O________ -1 -16.5000 59.7000 99 9.90000 5 220
1932001S15061 1932 3 SI MM NOT_NAMED 1932-01-02 09:00:00 NR -16.7109 59.5164 main 425 395 _____P________ -1 -16.7109 59.5164 99 6 219
1932001S15061 1932 3 SI MM NOT_NAMED 1932-01-02 12:00:00 NR -16.9384 59.3230 main 395 356 _____P________ -1 -16.9384 59.3230 99 6 219
1932001S15061 1932 3 SI MM NOT_NAMED 1932-01-02 15:00:00 NR -17.1798 59.1204 main 356 327 _____P________ -1 -17.1798 59.1204 99 6 219
1932001S15061 1932 3 SI MM NOT_NAMED 1932-01-02 18:00:00 NR -17.4324 58.9096 main 327 288 _____P________ -1 -17.4324 58.9096 99 7 219
1932001S15061 1932 3 SI MM NOT_NAMED 1932-01-02 21:00:00 NR -17.6934 58.6913 main 288 260 _____P________ -1 -17.6934 58.6913 99 7 219
1932001S15061 1932 3 SI MM NOT_NAMED 1932-01-03 00:00:00 NR -17.9601 58.4664 main 249 218 _____P________ -1 -17.9601 58.4664 99 7 219
1932001S15061 1932 3 SI MM NOT_NAMED 1932-01-03 03:00:00 NR -18.2299 58.2357 main 218 181 _____P________ -1 -18.2299 58.2357 99 7 219
1932001S15061 1932 3 SI MM NOT_NAMED 1932-01-03 06:00:00 NR -18.5000 58.0000 reunion main 181 156 _____O________ -1 -18.5000 58.0000 99 9.90000 7 220
1932001S15061 1932 3 SI MM NOT_NAMED 1932-01-03 09:00:00 NR -18.7519 57.7691 main 145 123 _____P________ -1 -18.7519 57.7691 99 7 221
1932001S15061 1932 3 SI MM NOT_NAMED 1932-01-03 12:00:00 NR -19.0053 57.5326 main 123 101 _____P________ -1 -19.0053 57.5326 99 7 222
1932001S15061 1932 3 SI MM NOT_NAMED 1932-01-03 15:00:00 NR -19.2609 57.2906 main 91 79 _____P________ -1 -19.2609 57.2906 99 7 222
1932001S15061 1932 3 SI MM NOT_NAMED 1932-01-03 18:00:00 NR -19.5195 57.0431 main 85 76 _____P________ -1 -19.5195 57.0431 99 7 222
1932001S15061 1932 3 SI MM NOT_NAMED 1932-01-03 21:00:00 NR -19.7819 56.7903 main 80 80 _____P________ -1 -19.7819 56.7903 99 7 222
1932001S15061 1932 3 SI MM NOT_NAMED 1932-01-04 00:00:00 NR -20.0489 56.5322 main 99 94 _____P________ -1 -20.0489 56.5322 99 7 222
1932001S15061 1932 3 SI MM NOT_NAMED 1932-01-04 03:00:00 NR -20.3214 56.2687 main 100 54 _____P________ -1 -20.3214 56.2687 99 7 222
1932001S15061 1932 3 SI MM NOT_NAMED 1932-01-04 06:00:00 NR -20.6000 56.0000 reunion main 54 11 _____O________ -1 -20.6000 56.0000 99 9.90000 8 222
1932001S15061 1932 3 SI MM NOT_NAMED 1932-01-04 09:00:00 NR -20.9171 55.6953 main 11 0 _____P________ -1 -20.9171 55.6953 99 9 222
1932001S15061 1932 3 SI MM NOT_NAMED 1932-01-04 12:00:00 NR -21.2444 55.3803 main 0 0 _____P________ -1 -21.2444 55.3803 99 9 222
1932001S15061 1932 3 SI MM NOT_NAMED 1932-01-04 15:00:00 NR -21.5742 55.0623 main 39 39 _____P________ -1 -21.5742 55.0623 99 9 222
1932001S15061 1932 3 SI MM NOT_NAMED 1932-01-04 18:00:00 NR -21.8990 54.7491 main 91 91 _____P________ -1 -21.8990 54.7491 99 9 222
1932001S15061 1932 3 SI MM NOT_NAMED 1932-01-04 21:00:00 NR -22.2114 54.4483 main 136 136 _____P________ -1 -22.2114 54.4483 99 8 222
1932001S15061 1932 3 SI MM NOT_NAMED 1932-01-05 00:00:00 NR -22.5039 54.1679 main 175 175 _____P________ -1 -22.5039 54.1679 99 7 221
1932001S15061 1932 3 SI MM NOT_NAMED 1932-01-05 03:00:00 NR -22.7693 53.9157 main 221 221 _____P________ -1 -22.7693 53.9157 99 7 221
1932001S15061 1932 3 SI MM NOT_NAMED 1932-01-05 06:00:00 NR -23.0000 53.7000 reunion main 251 251 _____O________ -1 -23.0000 53.7000 99 9.90000 6 220
1932001S15061 1932 3 SI MM NOT_NAMED 1932-01-05 09:00:00 NR -23.1910 53.5265 main 281 281 _____P________ -1 -23.1910 53.5265 99 4 219
1932001S15061 1932 3 SI MM NOT_NAMED 1932-01-05 12:00:00 NR -23.3455 53.3923 main 296 296 _____P________ -1 -23.3455 53.3923 99 4 218
1932001S15061 1932 3 SI MM NOT_NAMED 1932-01-05 15:00:00 NR -23.4688 53.2917 main 320 320 _____P________ -1 -23.4688 53.2917 99 3 216
1932001S15061 1932 3 SI MM NOT_NAMED 1932-01-05 18:00:00 NR -23.5661 53.2194 main 335 335 _____P________ -1 -23.5661 53.2194 99 2 212
1932001S15061 1932 3 SI MM NOT_NAMED 1932-01-05 21:00:00 NR -23.6427 53.1697 main 335 335 _____P________ -1 -23.6427 53.1697 99 2 210
1932001S15061 1932 3 SI MM NOT_NAMED 1932-01-06 00:00:00 NR -23.7038 53.1370 main 350 350 _____P________ -1 -23.7038 53.1370 99 1 207
1932001S15061 1932 3 SI MM NOT_NAMED 1932-01-06 03:00:00 NR -23.7545 53.1157 main 359 359 _____P________ -1 -23.7545 53.1157 99 1 203
1932001S15061 1932 3 SI MM NOT_NAMED 1932-01-06 06:00:00 NR -23.8000 53.1000 reunion main 359 _____O________ -1 -23.8000 53.1000 99 9.90000 1 0

About IBTrACS Database

This database is a web-friendly format of International Best Track Archive for Climate Stewardship (IBTrACS), a global best track data archive curated by NOAA dating back to 1842.

Updated: 2021-11-26